Time;durP1;ratioP1;P1;durP2;ratioP2;P2;SDS_P1;SDS_P2;PMS_P1;PMS_P2;Temp;Humidity;BMP_temperature;BMP_pressure;BME280_temperature;BME280_humidity;BME280_pressure;Samples;Min_cycle;Max_cycle;Signal;HPM_P1;HPM_P2
2022/09/22 00:00:38;;;;;;;2.60;2.37;;;6.70;99.90;;;;;;5032213;28;20222;-56
2022/09/22 00:03:04;;;;;;;4.10;2.30;;;6.70;99.90;;;;;;5032116;28;20306;-55
2022/09/22 00:05:31;;;;;;;3.73;2.43;;;6.70;99.90;;;;;;5031968;28;20206;-56
2022/09/22 00:07:59;;;;;;;3.43;2.63;;;6.70;99.90;;;;;;5030945;28;20206;-57
2022/09/22 00:10:27;;;;;;;3.10;2.60;;;6.60;99.90;;;;;;5031628;28;20229;-55
2022/09/22 00:12:54;;;;;;;2.90;2.60;;;6.60;99.90;;;;;;5032236;28;20213;-56
2022/09/22 00:15:22;;;;;;;4.67;2.47;;;6.60;99.90;;;;;;5031783;28;20293;-56
2022/09/22 00:17:48;;;;;;;4.23;2.50;;;6.60;99.90;;;;;;5032768;28;20206;-57
2022/09/22 00:20:16;;;;;;;3.43;2.77;;;6.60;99.90;;;;;;5033770;28;20233;-57
2022/09/22 00:22:43;;;;;;;3.63;3.10;;;6.70;99.90;;;;;;5034091;28;20701;-56
2022/09/22 00:25:10;;;;;;;4.03;2.40;;;6.70;99.90;;;;;;5032861;28;20210;-55
2022/09/22 00:27:38;;;;;;;3.67;2.60;;;6.70;99.90;;;;;;5031185;28;20771;-55
2022/09/22 00:30:06;;;;;;;3.23;2.80;;;6.80;99.90;;;;;;5031398;28;20605;-56
2022/09/22 00:32:33;;;;;;;4.87;2.83;;;6.80;99.90;;;;;;5031835;28;20646;-55
2022/09/22 00:35:00;;;;;;;3.77;2.20;;;6.70;99.90;;;;;;5031725;28;20209;-55
2022/09/22 00:37:27;;;;;;;5.47;2.30;;;6.70;99.90;;;;;;5031516;28;20271;-57
2022/09/22 00:39:53;;;;;;;4.23;2.57;;;6.70;99.90;;;;;;5031745;28;20234;-55
2022/09/22 00:42:21;;;;;;;3.33;2.80;;;6.70;99.90;;;;;;5031508;28;20206;-55
2022/09/22 00:44:49;;;;;;;3.27;2.83;;;6.70;99.90;;;;;;5031814;28;20214;-54
2022/09/22 00:47:31;;;;;;;4.80;2.60;;;6.70;99.90;;;;;;5031076;28;20289;-55
2022/09/22 00:50:05;;;;;;;6.97;2.37;;;6.70;99.90;;;;;;5031452;28;20232;-56
2022/09/22 00:52:36;;;;;;;5.00;2.83;;;6.70;99.90;;;;;;5031656;28;20214;-55
2022/09/22 00:55:07;;;;;;;4.67;2.60;;;6.70;99.90;;;;;;5031492;28;20268;-56
2022/09/22 00:57:36;;;;;;;5.83;2.87;;;6.60;99.90;;;;;;5031011;28;20256;-56
2022/09/22 01:00:08;;;;;;;4.00;2.90;;;6.60;99.90;;;;;;5031418;28;20230;-56
2022/09/22 01:02:36;;;;;;;3.30;2.97;;;6.50;99.90;;;;;;5031555;28;20222;-57
2022/09/22 01:05:03;;;;;;;3.43;2.47;;;6.50;99.90;;;;;;5031568;28;20666;-57
2022/09/22 01:07:31;;;;;;;5.80;3.03;;;6.50;99.90;;;;;;5031012;28;20210;-55
2022/09/22 01:09:58;;;;;;;3.77;2.67;;;6.50;99.90;;;;;;5031313;28;20230;-55
2022/09/22 01:12:27;;;;;;;6.67;2.70;;;6.50;99.90;;;;;;5031504;28;20694;-55
2022/09/22 01:15:16;;;;;;;3.33;2.83;;;6.50;99.90;;;;;;5031789;28;20301;-55
2022/09/22 01:17:55;;;;;;;4.50;2.70;;;6.50;99.90;;;;;;5026772;28;20203;-57
2022/09/22 01:20:50;;;;;;;3.67;2.90;;;6.40;99.90;;;;;;5032756;28;20230;-55
2022/09/22 01:23:53;;;;;;;4.10;2.60;;;6.40;99.90;;;;;;5035149;28;20210;-55
2022/09/22 01:27:02;;;;;;;3.03;2.70;;;6.40;99.90;;;;;;5035162;28;20213;-57
2022/09/22 01:30:00;;;;;;;3.20;2.53;;;6.50;99.90;;;;;;5034872;28;20233;-55
2022/09/22 01:32:32;;;;;;;3.03;2.40;;;6.50;99.90;;;;;;4993407;28;20207;-55
2022/09/22 01:35:05;;;;;;;6.83;2.40;;;6.50;99.90;;;;;;5034978;28;20221;-55
2022/09/22 01:37:41;;;;;;;4.20;2.50;;;6.50;99.90;;;;;;5034343;28;20217;-56
2022/09/22 01:40:12;;;;;;;5.13;2.80;;;6.50;99.90;;;;;;5034684;28;20222;-56
2022/09/22 01:42:43;;;;;;;3.90;2.60;;;6.50;99.90;;;;;;5034630;28;20268;-55
2022/09/22 01:45:12;;;;;;;2.90;2.60;;;6.60;99.90;;;;;;5034821;28;20237;-55
2022/09/22 01:47:44;;;;;;;3.87;2.60;;;6.60;99.90;;;;;;5034367;28;20207;-56
2022/09/22 01:50:17;;;;;;;5.17;2.70;;;6.50;99.90;;;;;;5034495;28;20232;-56
2022/09/22 01:52:44;;;;;;;3.80;2.70;;;6.50;99.90;;;;;;5034730;28;20214;-55
2022/09/22 01:55:16;;;;;;;2.97;2.60;;;6.40;99.90;;;;;;5034235;28;20732;-56
2022/09/22 01:57:51;;;;;;;2.77;2.40;;;6.50;99.90;;;;;;5033987;28;20210;-56
2022/09/22 02:00:18;;;;;;;3.73;2.70;;;6.50;99.90;;;;;;5034361;28;20225;-57
2022/09/22 02:02:52;;;;;;;3.00;2.37;;;6.50;99.90;;;;;;5034482;28;20218;-58
2022/09/22 02:05:23;;;;;;;3.73;2.60;;;6.50;99.90;;;;;;5034171;28;20699;-56
2022/09/22 02:07:53;;;;;;;4.33;2.43;;;6.40;99.90;;;;;;5033958;28;20225;-56
2022/09/22 02:10:25;;;;;;;5.33;2.57;;;6.40;99.90;;;;;;5034409;28;20226;-56
2022/09/22 02:12:53;;;;;;;3.87;2.60;;;6.30;99.90;;;;;;5034067;28;20666;-56
2022/09/22 02:18:11;;;;;;;4.07;2.90;;;6.10;99.90;;;;;;5033399;28;20205;-57
2022/09/22 02:20:39;;;;;;;3.00;2.67;;;6.00;99.90;;;;;;5033827;28;20284;-56
2022/09/22 02:23:06;;;;;;;3.70;2.33;;;6.00;99.90;;;;;;5034031;28;20206;-55
2022/09/22 02:25:34;;;;;;;3.73;2.30;;;6.00;99.90;;;;;;5033865;28;20210;-55
2022/09/22 02:28:01;;;;;;;3.07;2.60;;;5.90;99.90;;;;;;5033177;28;20698;-55
2022/09/22 02:30:28;;;;;;;6.50;3.53;;;5.90;99.90;;;;;;5033515;28;20705;-55
2022/09/22 02:32:57;;;;;;;4.27;3.70;;;6.00;99.90;;;;;;5032811;28;20214;-56
2022/09/22 02:35:29;;;;;;;4.00;3.00;;;5.90;99.90;;;;;;5034253;28;20202;-56
2022/09/22 02:38:02;;;;;;;4.10;3.30;;;5.90;99.90;;;;;;5033102;28;20268;-57
2022/09/22 02:40:32;;;;;;;5.50;2.90;;;5.90;99.90;;;;;;5033651;28;20230;-56
2022/09/22 02:43:03;;;;;;;5.23;2.90;;;5.90;99.90;;;;;;5033538;28;20206;-56
2022/09/22 02:45:34;;;;;;;3.37;2.80;;;5.80;99.90;;;;;;5033445;28;20203;-55
2022/09/22 02:48:05;;;;;;;4.03;3.10;;;5.80;99.90;;;;;;5033022;28;20275;-55
2022/09/22 02:50:35;;;;;;;6.80;2.97;;;5.80;99.90;;;;;;5033623;28;20226;-55
2022/09/22 02:53:04;;;;;;;3.87;3.00;;;5.80;99.90;;;;;;5033371;28;20261;-55
2022/09/22 02:55:31;;;;;;;3.37;2.67;;;5.70;99.90;;;;;;5033716;28;20570;-56
2022/09/22 02:57:57;;;;;;;5.47;2.80;;;5.70;99.90;;;;;;5032521;28;20568;-55
2022/09/22 03:00:25;;;;;;;4.17;2.80;;;5.80;99.90;;;;;;5033228;28;20226;-55
2022/09/22 03:02:52;;;;;;;3.53;2.93;;;5.90;99.90;;;;;;5033104;28;20359;-55
2022/09/22 03:05:18;;;;;;;8.20;4.37;;;5.90;99.90;;;;;;5033096;28;20213;-56
2022/09/22 03:07:46;;;;;;;3.40;2.93;;;5.90;99.90;;;;;;5033009;28;20206;-56
2022/09/22 03:10:13;;;;;;;4.17;2.67;;;6.00;99.90;;;;;;5033288;28;20252;-56
2022/09/22 03:12:42;;;;;;;5.43;2.60;;;5.90;99.90;;;;;;5033041;28;20226;-57
2022/09/22 03:15:10;;;;;;;7.13;2.70;;;5.90;99.90;;;;;;5033117;28;20252;-57
2022/09/22 03:17:37;;;;;;;2.90;2.60;;;5.90;99.90;;;;;;5032964;28;20207;-57
2022/09/22 03:20:05;;;;;;;6.57;4.17;;;5.90;99.90;;;;;;5032946;28;20237;-56
2022/09/22 03:22:32;;;;;;;4.47;3.13;;;5.90;99.90;;;;;;5032908;28;20213;-57
2022/09/22 03:25:00;;;;;;;3.33;2.73;;;6.00;99.90;;;;;;5033330;28;20221;-56
2022/09/22 03:27:27;;;;;;;4.50;3.10;;;5.90;99.90;;;;;;5032204;28;20341;-56
2022/09/22 03:29:54;;;;;;;3.03;2.60;;;5.90;99.90;;;;;;5032393;28;20682;-56
2022/09/22 03:32:21;;;;;;;2.77;2.50;;;5.90;99.90;;;;;;5032612;28;20327;-57
2022/09/22 03:34:48;;;;;;;2.90;2.60;;;5.80;99.90;;;;;;5032618;28;20214;-55
2022/09/22 03:37:14;;;;;;;3.60;2.90;;;5.90;99.90;;;;;;5031683;28;20551;-58
2022/09/22 03:39:41;;;;;;;3.03;2.63;;;5.80;99.90;;;;;;5033138;28;20230;-56
2022/09/22 03:42:09;;;;;;;3.70;2.57;;;5.70;99.90;;;;;;5032571;28;20256;-56
2022/09/22 03:44:36;;;;;;;3.77;2.90;;;5.70;99.90;;;;;;5032523;28;20260;-56
2022/09/22 03:47:03;;;;;;;4.43;2.90;;;5.70;99.90;;;;;;5032402;28;20214;-61
2022/09/22 03:49:30;;;;;;;4.00;3.23;;;5.70;99.90;;;;;;5032752;28;20253;-56
2022/09/22 03:51:57;;;;;;;3.10;2.80;;;5.70;99.90;;;;;;5032146;28;20292;-56
2022/09/22 03:54:24;;;;;;;6.13;2.90;;;5.70;99.90;;;;;;5032626;28;20206;-55
2022/09/22 03:56:51;;;;;;;4.10;2.83;;;5.70;99.90;;;;;;5032258;28;20248;-56
2022/09/22 03:59:19;;;;;;;3.63;2.60;;;5.70;99.90;;;;;;5031485;28;20226;-56
2022/09/22 04:01:46;;;;;;;3.43;2.73;;;5.70;99.90;;;;;;5032219;28;20268;-56
2022/09/22 04:04:12;;;;;;;3.57;2.93;;;5.60;99.90;;;;;;5031962;28;20252;-55
2022/09/22 04:06:39;;;;;;;4.27;3.63;;;5.70;99.90;;;;;;5031863;28;20203;-56
2022/09/22 04:09:06;;;;;;;4.30;3.23;;;5.60;99.90;;;;;;5031301;28;20206;-58
2022/09/22 04:11:33;;;;;;;3.80;3.10;;;5.60;99.90;;;;;;5032073;28;20222;-55
2022/09/22 04:14:00;;;;;;;4.23;3.17;;;5.70;99.90;;;;;;5031806;28;20681;-56
2022/09/22 04:16:28;;;;;;;3.90;3.20;;;5.70;99.90;;;;;;5031848;28;20682;-56
2022/09/22 04:18:55;;;;;;;5.30;3.70;;;5.70;99.90;;;;;;5030980;28;20272;-56
2022/09/22 04:21:22;;;;;;;5.87;3.23;;;5.70;99.90;;;;;;5031826;28;20213;-58
2022/09/22 04:23:49;;;;;;;4.60;3.40;;;5.70;99.90;;;;;;5031946;28;20218;-56
2022/09/22 04:26:15;;;;;;;3.43;3.13;;;5.70;99.90;;;;;;5031966;28;20578;-56
2022/09/22 04:28:42;;;;;;;7.23;3.47;;;5.70;99.90;;;;;;5031156;28;20206;-56
2022/09/22 04:31:09;;;;;;;4.80;3.50;;;5.70;99.90;;;;;;5031616;28;20679;-56
2022/09/22 04:33:37;;;;;;;5.70;3.47;;;5.70;99.90;;;;;;5031847;28;20210;-57
2022/09/22 04:36:04;;;;;;;4.03;3.57;;;5.70;99.90;;;;;;5032092;28;20217;-56
2022/09/22 04:38:30;;;;;;;8.03;3.73;;;5.70;99.90;;;;;;5031589;28;20217;-57
2022/09/22 04:40:57;;;;;;;5.43;3.23;;;5.70;99.90;;;;;;5031621;28;20226;-57
2022/09/22 04:43:24;;;;;;;3.67;3.23;;;5.70;99.90;;;;;;5031997;28;20213;-56
2022/09/22 04:45:51;;;;;;;4.40;3.43;;;5.70;99.90;;;;;;5032739;28;20230;-55
2022/09/22 04:48:17;;;;;;;7.80;3.90;;;5.60;99.90;;;;;;5030940;28;20229;-56
2022/09/22 04:50:46;;;;;;;6.97;3.97;;;5.60;99.90;;;;;;5031808;28;20459;-59
2022/09/22 04:53:12;;;;;;;6.13;3.93;;;5.60;99.90;;;;;;5031488;28;20638;-57
2022/09/22 04:55:39;;;;;;;6.20;3.97;;;5.60;99.90;;;;;;5033987;28;20233;-56
2022/09/22 04:58:06;;;;;;;4.87;3.10;;;5.60;99.90;;;;;;5035171;28;20213;-56
2022/09/22 05:00:33;;;;;;;5.73;3.40;;;5.60;99.90;;;;;;5035213;28;20237;-55
2022/09/22 05:03:00;;;;;;;6.17;4.10;;;5.60;99.90;;;;;;5035932;28;20202;-56
2022/09/22 05:05:28;;;;;;;5.50;3.70;;;5.60;99.90;;;;;;5036722;28;20301;-57
2022/09/22 05:07:56;;;;;;;4.80;3.90;;;5.60;99.90;;;;;;5035757;28;20293;-57
2022/09/22 05:10:25;;;;;;;4.93;3.30;;;5.50;99.90;;;;;;5035374;28;20775;-56
2022/09/22 05:12:53;;;;;;;4.27;3.60;;;5.50;99.90;;;;;;5035305;28;20229;-56
2022/09/22 05:15:21;;;;;;;5.93;4.30;;;5.50;99.90;;;;;;5034960;28;20741;-56
2022/09/22 05:17:49;;;;;;;4.23;3.67;;;5.50;99.90;;;;;;5034773;28;20237;-57
2022/09/22 05:20:16;;;;;;;5.67;3.40;;;5.50;99.90;;;;;;5035585;28;20234;-60
2022/09/22 05:22:43;;;;;;;9.03;3.70;;;5.60;99.90;;;;;;5035167;28;20203;-60
2022/09/22 05:25:15;;;;;;;5.27;3.50;;;5.60;99.90;;;;;;5035050;28;20574;-60
2022/09/22 05:27:47;;;;;;;3.90;3.47;;;5.60;99.90;;;;;;5034433;28;20210;-60
2022/09/22 05:30:14;;;;;;;5.90;3.47;;;5.70;99.90;;;;;;5035048;28;20260;-60
2022/09/22 05:32:43;;;;;;;5.13;3.50;;;5.70;99.90;;;;;;5034932;28;20222;-60
2022/09/22 05:35:10;;;;;;;3.77;2.93;;;5.70;99.90;;;;;;5034836;28;20237;-60
2022/09/22 05:37:37;;;;;;;4.53;3.30;;;5.80;99.90;;;;;;5034240;28;20214;-60
2022/09/22 05:40:05;;;;;;;4.70;3.33;;;5.80;99.90;;;;;;5034646;28;20802;-60
2022/09/22 05:42:34;;;;;;;7.03;3.50;;;5.80;99.90;;;;;;5034725;28;20202;-59
2022/09/22 05:45:00;;;;;;;8.60;3.00;;;5.90;99.90;;;;;;5034969;28;20210;-64
2022/09/22 05:47:27;;;;;;;4.90;2.63;;;6.00;99.90;;;;;;5034210;28;20206;-60
2022/09/22 05:49:54;;;;;;;8.50;4.93;;;6.00;99.90;;;;;;5034878;28;20226;-58
2022/09/22 05:52:20;;;;;;;8.53;3.57;;;6.00;99.90;;;;;;5034247;28;20689;-59
2022/09/22 05:54:47;;;;;;;6.13;3.63;;;6.10;99.90;;;;;;5034025;28;20682;-60
2022/09/22 05:57:14;;;;;;;10.00;3.40;;;6.10;99.90;;;;;;5034067;28;20241;-60
2022/09/22 05:59:42;;;;;;;4.43;3.37;;;6.20;99.90;;;;;;5033968;28;20234;-59
2022/09/22 06:02:10;;;;;;;7.67;3.37;;;6.30;99.90;;;;;;5034512;28;20210;-60
2022/09/22 06:04:37;;;;;;;3.87;3.40;;;6.30;99.90;;;;;;5034195;28;20213;-60
2022/09/22 06:07:05;;;;;;;3.63;2.87;;;6.40;99.90;;;;;;5033097;28;20214;-60
2022/09/22 06:09:32;;;;;;;7.47;3.20;;;6.40;99.90;;;;;;5033787;28;20230;-59
2022/09/22 06:11:59;;;;;;;4.17;3.03;;;6.60;99.90;;;;;;5034027;28;20360;-60
2022/09/22 06:14:26;;;;;;;3.90;2.83;;;7.10;99.90;;;;;;5034116;28;20573;-60
2022/09/22 06:16:54;;;;;;;5.60;2.70;;;8.40;99.90;;;;;;5033716;28;20751;-60
2022/09/22 06:19:22;;;;;;;7.13;2.80;;;10.20;99.90;;;;;;5033359;28;20230;-60
2022/09/22 06:21:49;;;;;;;8.20;2.67;;;12.00;99.90;;;;;;5033985;28;20686;-61
2022/09/22 06:24:15;;;;;;;10.03;2.53;;;13.70;99.90;;;;;;5034053;28;20297;-60
2022/09/22 06:26:42;;;;;;;5.70;2.50;;;15.20;99.90;;;;;;5033660;28;20268;-60
2022/09/22 06:29:09;;;;;;;4.67;2.30;;;16.50;99.90;;;;;;5032924;28;20214;-60
2022/09/22 06:31:36;;;;;;;5.80;2.17;;;17.50;99.90;;;;;;5033642;28;20242;-59
2022/09/22 06:34:04;;;;;;;4.20;2.97;;;18.40;99.90;;;;;;5033796;28;20206;-59
2022/09/22 06:36:31;;;;;;;5.40;2.42;;;19.20;99.90;;;;;;5033421;28;20581;-58
2022/09/22 06:38:58;;;;;;;5.95;2.47;;;19.90;98.70;;;;;;5032936;28;20217;-60
2022/09/22 06:41:25;;;;;;;6.03;2.75;;;20.60;97.50;;;;;;5033666;28;20244;-60
2022/09/22 06:43:54;;;;;;;8.00;2.95;;;21.30;95.70;;;;;;5033658;28;20213;-60
2022/09/22 06:46:22;;;;;;;6.30;2.25;;;22.10;94.20;;;;;;5033488;28;20621;-60
2022/09/22 06:48:50;;;;;;;7.45;2.63;;;22.80;91.30;;;;;;5032904;28;20210;-61
2022/09/22 06:51:18;;;;;;;4.72;2.85;;;23.50;88.70;;;;;;5033325;28;20245;-60
2022/09/22 06:53:46;;;;;;;3.35;2.50;;;24.10;83.50;;;;;;5033006;28;20610;-59
2022/09/22 06:56:13;;;;;;;8.05;2.88;;;24.30;79.20;;;;;;5033239;28;20205;-59
2022/09/22 06:58:43;;;;;;;6.15;2.80;;;24.60;76.90;;;;;;5032653;28;20210;-58
2022/09/22 07:01:09;;;;;;;4.57;2.60;;;25.00;74.50;;;;;;5033087;28;20242;-57
2022/09/22 07:03:41;;;;;;;3.10;2.80;;;25.30;71.50;;;;;;5033008;28;20206;-59
2022/09/22 07:06:09;;;;;;;5.57;2.50;;;25.40;71.30;;;;;;5033106;28;20206;-58
2022/09/22 07:08:38;;;;;;;3.65;2.25;;;25.40;68.90;;;;;;5032454;28;20254;-59
2022/09/22 07:11:07;;;;;;;4.47;2.22;;;25.40;68.90;;;;;;5032985;28;20254;-59
2022/09/22 07:13:38;;;;;;;4.78;2.65;;;25.60;66.90;;;;;;5032908;28;20774;-58
2022/09/22 07:16:07;;;;;;;4.90;2.60;;;25.60;67.50;;;;;;5032543;28;20202;-61
2022/09/22 07:18:35;;;;;;;4.03;2.38;;;25.80;66.00;;;;;;5032068;28;20206;-59
2022/09/22 07:21:03;;;;;;;4.55;2.60;;;25.70;65.20;;;;;;5032866;28;20657;-59
2022/09/22 07:23:29;;;;;;;4.10;2.25;;;25.70;66.20;;;;;;5032709;28;20298;-60
2022/09/22 07:25:59;;;;;;;3.45;2.42;;;25.80;65.30;;;;;;5032738;28;20233;-58
2022/09/22 07:28:27;;;;;;;2.72;2.35;;;26.00;63.40;;;;;;5031972;28;20275;-59
2022/09/22 07:30:56;;;;;;;3.15;2.28;;;26.00;63.90;;;;;;5032620;28;20880;-60
2022/09/22 07:33:23;;;;;;;10.80;2.47;;;26.10;63.50;;;;;;5032617;28;20608;-60
2022/09/22 07:35:58;;;;;;;3.47;2.63;;;26.30;63.10;;;;;;5032723;28;20212;-60
2022/09/22 07:38:28;;;;;;;3.58;2.30;;;26.30;63.60;;;;;;5031953;28;20356;-60
2022/09/22 07:40:55;;;;;;;3.40;2.10;;;26.50;63.20;;;;;;5032120;28;20296;-59
2022/09/22 07:43:23;;;;;;;8.45;4.10;;;26.60;62.90;;;;;;5032259;28;20206;-59
2022/09/22 07:45:54;;;;;;;20.27;4.72;;;26.60;62.80;;;;;;5032515;28;20308;-60
2022/09/22 07:48:36;;;;;;;10.60;3.72;;;25.90;64.10;;;;;;5032009;28;20217;-58
2022/09/22 07:51:04;;;;;;;8.68;3.33;;;24.40;65.50;;;;;;5032091;28;20233;-59
2022/09/22 07:53:31;;;;;;;6.70;2.97;;;22.60;69.10;;;;;;5032040;28;20225;-59
2022/09/22 07:56:03;;;;;;;8.77;2.90;;;21.20;72.60;;;;;;5032583;28;20238;-59
2022/09/22 07:58:31;;;;;;;7.90;3.10;;;20.10;75.30;;;;;;5031673;28;20302;-61
2022/09/22 08:00:58;;;;;;;5.85;2.90;;;19.20;78.70;;;;;;5032072;28;20292;-59
2022/09/22 08:03:24;;;;;;;9.55;3.03;;;18.50;82.30;;;;;;5032230;28;20704;-59
2022/09/22 08:05:52;;;;;;;5.40;2.50;;;17.80;86.60;;;;;;5031995;28;20252;-58
2022/09/22 08:08:19;;;;;;;4.63;2.60;;;17.00;90.00;;;;;;5031320;28;20210;-60
2022/09/22 08:10:46;;;;;;;3.45;1.98;;;16.40;92.00;;;;;;5031940;28;20252;-59
2022/09/22 08:13:13;;;;;;;3.13;1.70;;;15.90;93.10;;;;;;5031991;28;20229;-59
2022/09/22 08:15:42;;;;;;;2.57;2.10;;;15.50;94.50;;;;;;5032121;28;20215;-59
2022/09/22 08:18:08;;;;;;;2.23;1.90;;;15.20;96.30;;;;;;5031363;28;20214;-59
2022/09/22 08:20:35;;;;;;;2.70;1.70;;;14.80;98.00;;;;;;5031670;28;20234;-59
2022/09/22 08:23:04;;;;;;;2.73;2.10;;;14.50;99.60;;;;;;5032077;28;20213;-59
2022/09/22 08:25:31;;;;;;;2.53;1.97;;;14.30;99.90;;;;;;5032136;28;20206;-59
2022/09/22 08:28:00;;;;;;;2.70;1.87;;;14.20;99.90;;;;;;5031340;28;20210;-59
2022/09/22 08:30:27;;;;;;;3.43;1.90;;;14.20;99.90;;;;;;5031169;28;20285;-59
2022/09/22 08:32:55;;;;;;;2.33;1.57;;;14.20;99.90;;;;;;5031723;28;20226;-60
2022/09/22 08:35:21;;;;;;;3.33;1.93;;;14.20;99.90;;;;;;5031680;28;20202;-59
2022/09/22 08:37:49;;;;;;;3.00;1.80;;;14.20;99.90;;;;;;5030917;28;20202;-59
2022/09/22 08:40:22;;;;;;;3.27;1.77;;;14.10;99.90;;;;;;5031980;28;20863;-59
2022/09/22 08:42:52;;;;;;;2.57;1.70;;;14.10;99.90;;;;;;5031733;28;20294;-59
2022/09/22 08:45:29;;;;;;;3.20;1.70;;;14.10;99.90;;;;;;5031877;28;20210;-59
2022/09/22 08:53:39;;;;;;;3.57;1.60;;;14.40;99.90;;;;;;5031643;28;20360;-58
2022/09/22 08:56:29;;;;;;;1.93;1.50;;;14.50;99.90;;;;;;5031728;28;20210;-60
2022/09/22 08:59:02;;;;;;;2.10;1.33;;;14.70;99.90;;;;;;5031248;28;20234;-59
2022/09/22 09:01:42;;;;;;;3.90;1.27;;;14.70;99.90;;;;;;5031766;28;20297;-58
2022/09/22 09:04:35;;;;;;;1.40;1.20;;;14.80;99.90;;;;;;5031496;28;20293;-59
2022/09/22 09:07:07;;;;;;;2.57;1.40;;;14.80;99.90;;;;;;5031997;28;20210;-58
2022/09/22 09:09:45;;;;;;;3.73;1.50;;;14.90;99.90;;;;;;5031045;28;20226;-59
2022/09/22 09:12:35;;;;;;;2.33;1.10;;;14.90;99.90;;;;;;5031643;28;20206;-59
2022/09/22 09:15:25;;;;;;;1.47;1.10;;;14.90;99.90;;;;;;5031489;28;20214;-59
2022/09/22 09:17:54;;;;;;;4.10;1.00;;;15.00;99.90;;;;;;5030899;28;20211;-59
2022/09/22 09:20:31;;;;;;;1.47;0.90;;;15.20;99.90;;;;;;5031243;28;20246;-59
2022/09/22 09:22:59;;;;;;;2.63;1.47;;;15.30;99.90;;;;;;5031579;28;20227;-59
2022/09/22 09:25:34;;;;;;;3.40;1.53;;;15.20;99.90;;;;;;5031135;28;20250;-59
2022/09/22 09:28:04;;;;;;;2.27;1.60;;;15.20;99.90;;;;;;5030753;28;20215;-58
2022/09/22 09:30:38;;;;;;;2.67;1.27;;;15.20;99.90;;;;;;5031353;28;20272;-59
2022/09/22 09:33:14;;;;;;;2.43;1.07;;;15.20;99.90;;;;;;5031150;28;20226;-60
2022/09/22 09:35:46;;;;;;;1.10;1.00;;;15.20;99.90;;;;;;5031010;28;20212;-60
2022/09/22 09:38:16;;;;;;;1.80;1.30;;;15.50;99.90;;;;;;5031007;28;20239;-60
2022/09/22 09:40:53;;;;;;;1.87;1.17;;;15.70;99.90;;;;;;5031840;28;20222;-60
2022/09/22 09:43:22;;;;;;;1.87;1.13;;;15.90;99.90;;;;;;5034475;28;20666;-59
2022/09/22 09:45:57;;;;;;;1.50;1.00;;;16.00;99.90;;;;;;5034482;28;20697;-60
2022/09/22 09:48:32;;;;;;;1.63;0.90;;;16.20;99.90;;;;;;5033786;28;20661;-59
2022/09/22 09:51:04;;;;;;;1.50;1.00;;;16.30;99.90;;;;;;5034695;28;20225;-60
2022/09/22 09:53:33;;;;;;;1.23;1.07;;;16.40;99.40;;;;;;5034525;28;20226;-60
2022/09/22 09:56:00;;;;;;;2.23;1.33;;;16.30;99.60;;;;;;5034487;28;20301;-61
2022/09/22 10:01:14;;;;;;;1.48;1.00;;;16.50;99.10;;;;;;5034124;28;20232;-59
2022/09/22 10:03:47;;;;;;;2.80;0.87;;;16.60;98.80;;;;;;5034191;28;20213;-61
2022/09/22 10:06:22;;;;;;;1.65;0.98;;;16.60;98.30;;;;;;5034182;28;20750;-61
2022/09/22 10:08:50;;;;;;;2.33;0.97;;;16.60;98.60;;;;;;5033080;28;20305;-60
2022/09/22 10:11:29;;;;;;;1.70;0.70;;;16.70;98.30;;;;;;5034401;28;20202;-60
2022/09/22 10:13:56;;;;;;;7.57;5.83;;;16.90;98.10;;;;;;5034423;28;20284;-61
2022/09/22 10:16:24;;;;;;;7.57;3.30;;;17.10;97.80;;;;;;5034091;28;20210;-61
2022/09/22 10:19:02;;;;;;;1.30;0.90;;;17.20;97.00;;;;;;5033344;28;20268;-58
2022/09/22 10:21:30;;;;;;;1.40;0.80;;;17.30;97.10;;;;;;5038787;28;20231;-60
2022/09/22 10:23:57;;;;;;;2.38;0.70;;;17.30;96.70;;;;;;5051974;28;20209;-61
2022/09/22 10:26:26;;;;;;;2.08;1.17;;;17.40;96.50;;;;;;5052536;28;20300;-59
2022/09/22 10:29:12;;;;;;;0.97;0.80;;;17.40;96.20;;;;;;5051245;28;20286;-59
2022/09/22 10:31:40;;;;;;;1.75;0.98;;;17.40;96.20;;;;;;5024601;28;20539;-59
2022/09/22 10:34:29;;;;;;;4.30;1.10;;;17.30;96.80;;;;;;5031873;28;20217;-59
2022/09/22 10:36:58;;;;;;;1.35;0.95;;;17.30;96.80;;;;;;5033771;28;20322;-59
2022/09/22 10:39:32;;;;;;;1.95;0.98;;;17.40;96.00;;;;;;5032919;28;20230;-58
2022/09/22 10:42:06;;;;;;;3.20;1.00;;;17.50;96.00;;;;;;5033562;28;20210;-59
2022/09/22 10:44:33;;;;;;;2.00;1.00;;;17.70;96.20;;;;;;5033584;28;20423;-59
2022/09/22 10:47:30;;;;;;;2.65;0.85;;;17.80;96.20;;;;;;5033377;28;20218;-60
2022/09/22 10:50:18;;;;;;;0.98;0.90;;;17.90;95.80;;;;;;5032611;28;20721;-57
2022/09/22 10:52:53;;;;;;;3.17;0.93;;;18.20;95.00;;;;;;5032738;28;20329;-58
2022/09/22 10:55:28;;;;;;;3.53;0.90;;;18.30;94.90;;;;;;5033713;28;20201;-58
2022/09/22 10:58:16;;;;;;;1.55;1.08;;;18.30;94.60;;;;;;5032918;28;20217;-58
2022/09/22 11:00:43;;;;;;;1.58;0.82;;;18.40;94.10;;;;;;5033090;28;20292;-59
2022/09/22 11:03:33;;;;;;;0.88;0.70;;;18.40;94.20;;;;;;5032991;28;20272;-59
2022/09/22 11:12:17;;;;;;;1.83;0.73;;;18.50;93.10;;;;;;5033037;28;20689;-59
2022/09/22 11:15:12;;;;;;;1.30;0.85;;;18.50;93.60;;;;;;5032699;28;20767;-58
2022/09/22 11:17:54;;;;;;;0.65;0.60;;;18.60;93.10;;;;;;5025772;28;20293;-60
2022/09/22 11:20:33;;;;;;;1.20;0.90;;;18.70;92.70;;;;;;5033141;28;20237;-61
2022/09/22 11:23:24;;;;;;;0.80;0.60;;;18.90;92.10;;;;;;5033064;28;20589;-61
2022/09/22 11:26:23;;;;;;;1.48;0.77;;;18.90;91.70;;;;;;5032650;28;20238;-60
2022/09/22 11:29:05;;;;;;;1.25;0.70;;;19.00;92.10;;;;;;5008101;28;20218;-61
2022/09/22 11:31:42;;;;;;;3.40;0.90;;;19.20;91.90;;;;;;5032916;28;20210;-60
2022/09/22 11:34:34;;;;;;;2.08;0.80;;;19.30;91.40;;;;;;5032535;28;20225;-60
2022/09/22 11:37:25;;;;;;;0.75;0.75;;;19.40;90.80;;;;;;5032499;28;20615;-61
2022/09/22 11:40:20;;;;;;;1.35;1.00;;;19.40;90.70;;;;;;5031716;28;20672;-61
2022/09/22 11:42:54;;;;;;;2.55;0.70;;;19.60;90.00;;;;;;4941575;28;20220;-60
2022/09/22 11:45:35;;;;;;;1.23;0.60;;;19.70;89.50;;;;;;5032437;28;20202;-59
2022/09/22 11:48:07;;;;;;;1.40;0.70;;;19.80;87.50;;;;;;5031724;28;20216;-60
2022/09/22 11:50:56;;;;;;;0.95;0.70;;;19.70;88.00;;;;;;5032333;28;20639;-61
2022/09/22 11:53:50;;;;;;;2.05;0.85;;;19.40;87.80;;;;;;5032586;28;20205;-61
2022/09/22 11:56:36;;;;;;;1.10;0.75;;;19.20;88.50;;;;;;5032298;28;20210;-61
2022/09/22 11:59:13;;;;;;;0.90;0.73;;;19.10;88.70;;;;;;5031537;28;20241;-60
2022/09/22 12:01:41;;;;;;;1.02;0.88;;;19.10;87.70;;;;;;5032272;28;20210;-61
2022/09/22 12:04:19;;;;;;;0.60;0.60;;;19.30;86.90;;;;;;5031654;28;20211;-61
2022/09/22 12:06:49;;;;;;;1.13;0.65;;;19.40;88.00;;;;;;5032147;28;20232;-60
2022/09/22 12:09:29;;;;;;;1.95;1.00;;;19.40;88.40;;;;;;5031642;28;20230;-61
2022/09/22 12:11:57;;;;;;;2.80;0.90;;;19.40;87.50;;;;;;5031815;28;20202;-61
2022/09/22 12:14:27;;;;;;;0.90;0.70;;;19.50;87.40;;;;;;5032324;28;20226;-60
2022/09/22 12:17:00;;;;;;;2.13;1.15;;;19.60;86.10;;;;;;5031802;28;20721;-60
2022/09/22 12:19:35;;;;;;;1.45;0.88;;;19.60;85.60;;;;;;5031220;28;20771;-60
2022/09/22 12:22:11;;;;;;;2.05;0.77;;;19.90;83.90;;;;;;5031762;28;20212;-61
2022/09/22 12:24:38;;;;;;;1.40;0.85;;;20.10;84.40;;;;;;5031640;28;20248;-60
2022/09/22 12:27:21;;;;;;;0.80;0.70;;;20.10;83.90;;;;;;5032118;28;20218;-61
2022/09/22 12:29:57;;;;;;;0.80;0.80;;;20.00;82.90;;;;;;5030978;28;20783;-61
2022/09/22 12:32:28;;;;;;;1.88;1.08;;;20.10;82.90;;;;;;5031909;28;20224;-60
2022/09/22 12:34:57;;;;;;;0.70;0.70;;;20.30;83.10;;;;;;5031521;28;20618;-60
2022/09/22 12:37:29;;;;;;;3.03;2.28;;;20.40;81.90;;;;;;5031978;28;20210;-61
2022/09/22 12:40:01;;;;;;;0.63;0.55;;;20.50;80.80;;;;;;5030967;28;20226;-60
2022/09/22 12:42:33;;;;;;;0.80;0.60;;;20.50;79.80;;;;;;5031478;28;20225;-60
2022/09/22 12:45:07;;;;;;;0.70;0.68;;;20.50;78.70;;;;;;5031499;28;20206;-60
2022/09/22 12:47:37;;;;;;;1.70;0.80;;;20.50;79.50;;;;;;5031477;28;20669;-60
2022/09/22 12:50:06;;;;;;;1.30;1.08;;;20.30;79.90;;;;;;5030907;28;20674;-62
2022/09/22 12:53:01;;;;;;;2.45;0.85;;;20.20;80.40;;;;;;5031479;28;20376;-59
2022/09/22 12:55:37;;;;;;;1.98;0.63;;;20.10;80.00;;;;;;5031278;28;20317;-61
2022/09/22 12:58:25;;;;;;;1.27;0.80;;;20.10;80.70;;;;;;5031002;28;20213;-59
2022/09/22 13:00:54;;;;;;;0.52;0.52;;;20.20;81.00;;;;;;5029362;28;20280;-59
2022/09/22 13:03:48;;;;;;;2.53;0.88;;;20.20;79.50;;;;;;5048891;28;20232;-62
2022/09/22 13:06:52;;;;;;;0.70;0.40;;;20.10;80.20;;;;;;5050095;28;20300;-60
2022/09/22 13:09:24;;;;;;;1.65;0.60;;;19.90;78.90;;;;;;5049371;28;20279;-62
2022/09/22 13:12:26;;;;;;;1.38;0.90;;;19.80;80.70;;;;;;5050135;28;20232;-62
2022/09/22 13:14:58;;;;;;;2.30;0.80;;;19.90;80.80;;;;;;5050364;28;20251;-63
2022/09/22 13:17:42;;;;;;;0.90;0.55;;;20.00;80.80;;;;;;5053491;28;20237;-62
2022/09/22 13:20:22;;;;;;;0.82;0.68;;;20.10;80.40;;;;;;5053094;28;20237;-63
2022/09/22 13:22:50;;;;;;;1.38;1.00;;;20.00;79.70;;;;;;5054051;28;20296;-63
2022/09/22 13:25:24;;;;;;;0.82;0.70;;;20.10;79.60;;;;;;5053882;28;20237;-62
2022/09/22 13:28:03;;;;;;;1.58;0.82;;;20.30;79.90;;;;;;5053883;28;20214;-62
2022/09/22 13:30:31;;;;;;;2.15;0.60;;;20.20;79.40;;;;;;5053682;28;20279;-62